createdAt,value
2018-07-25T00:01:14.898Z,8.00
2018-07-25T00:03:44.047Z,9.43
2018-07-25T00:06:13.207Z,8.87
2018-07-25T00:08:42.398Z,8.43
2018-07-25T00:11:11.562Z,9.03
2018-07-25T00:13:40.842Z,13.87
2018-07-25T00:16:10.070Z,8.40
2018-07-25T00:18:39.227Z,8.03
2018-07-25T00:21:08.438Z,9.90
2018-07-25T00:23:37.982Z,8.63
2018-07-25T00:26:07.674Z,10.93
2018-07-25T00:28:36.832Z,9.47
2018-07-25T00:31:06.019Z,9.43
2018-07-25T00:33:35.174Z,10.00
2018-07-25T00:36:04.350Z,12.17
2018-07-25T00:38:33.550Z,10.63
2018-07-25T00:41:02.452Z,9.37
2018-07-25T00:43:31.507Z,10.87
2018-07-25T00:46:01.076Z,10.20
2018-07-25T00:48:30.236Z,7.73
2018-07-25T00:50:59.696Z,8.17
2018-07-25T00:53:28.882Z,10.80
2018-07-25T00:55:58.098Z,8.73
2018-07-25T00:58:27.311Z,8.73
2018-07-25T01:00:56.483Z,8.67
2018-07-25T01:03:25.794Z,7.90
2018-07-25T01:05:54.943Z,8.87
2018-07-25T01:08:24.520Z,8.70
2018-07-25T01:10:53.667Z,10.87
2018-07-25T01:13:22.830Z,8.23
2018-07-25T01:15:52.018Z,9.53
2018-07-25T01:18:21.167Z,10.03
2018-07-25T01:20:50.326Z,13.23
2018-07-25T01:23:19.365Z,9.03
2018-07-25T01:25:48.391Z,8.50
2018-07-25T01:28:17.687Z,8.80
2018-07-25T01:30:47.039Z,9.33
2018-07-25T01:33:16.190Z,9.37
2018-07-25T01:35:45.354Z,9.77
2018-07-25T01:38:14.650Z,9.33
2018-07-25T01:40:43.827Z,9.10
2018-07-25T01:43:13.082Z,9.80
2018-07-25T01:45:42.296Z,9.23
2018-07-25T01:48:11.798Z,11.83
2018-07-25T01:50:40.922Z,8.40
2018-07-25T01:53:10.491Z,11.87
2018-07-25T01:55:39.622Z,12.83
2018-07-25T01:58:08.806Z,11.03
2018-07-25T02:00:38.018Z,9.50
2018-07-25T02:03:06.869Z,9.33
2018-07-25T02:05:35.988Z,16.00
2018-07-25T02:08:05.180Z,9.20
2018-07-25T02:10:38.215Z,8.20
2018-07-25T02:13:07.474Z,8.50
2018-07-25T02:15:36.615Z,9.27
2018-07-25T02:18:06.218Z,8.30
2018-07-25T02:20:35.483Z,10.17
2018-07-25T02:23:04.680Z,8.27
2018-07-25T02:25:33.858Z,7.77
2018-07-25T02:28:03.039Z,12.00
2018-07-25T02:30:32.484Z,8.13
2018-07-25T02:33:01.634Z,8.80
2018-07-25T02:35:31.115Z,8.40
2018-07-25T02:38:00.394Z,10.43
2018-07-25T02:40:29.566Z,9.90
2018-07-25T02:42:58.755Z,10.67
2018-07-25T02:45:32.152Z,7.87
2018-07-25T02:48:01.318Z,12.00
2018-07-25T02:50:30.471Z,9.93
2018-07-25T02:52:59.763Z,9.23
2018-07-25T02:55:29.319Z,13.20
2018-07-25T02:57:58.472Z,12.10
2018-07-25T03:00:27.655Z,14.57
2018-07-25T03:02:56.902Z,9.87
2018-07-25T03:05:26.616Z,12.80
2018-07-25T03:07:55.807Z,8.50
2018-07-25T03:10:25.132Z,9.00
2018-07-25T03:12:54.751Z,14.33
2018-07-25T03:15:23.918Z,8.47
2018-07-25T03:17:53.643Z,9.50
2018-07-25T03:20:22.824Z,16.23
2018-07-25T03:22:52.018Z,11.03
2018-07-25T03:25:21.207Z,11.33
2018-07-25T03:27:50.364Z,8.90
2018-07-25T03:30:19.499Z,8.60
2018-07-25T03:32:48.817Z,7.80
2018-07-25T03:35:17.863Z,12.70
2018-07-25T03:37:47.011Z,9.50
2018-07-25T03:40:16.274Z,14.47
2018-07-25T03:42:45.474Z,15.67
2018-07-25T03:45:14.733Z,8.70
2018-07-25T03:47:43.919Z,9.70
2018-07-25T03:50:13.097Z,12.30
2018-07-25T03:52:42.250Z,12.23
2018-07-25T03:55:11.490Z,17.20
2018-07-25T03:57:40.647Z,12.47
2018-07-25T04:00:09.830Z,12.40
2018-07-25T04:02:39.116Z,15.00
2018-07-25T04:05:08.276Z,13.43
2018-07-25T04:07:37.426Z,11.80
2018-07-25T04:10:07.302Z,15.57
2018-07-25T04:12:36.474Z,9.83
2018-07-25T04:15:05.791Z,11.63
2018-07-25T04:17:41.659Z,16.73
2018-07-25T04:20:11.238Z,15.13
2018-07-25T04:22:40.399Z,15.60
2018-07-25T04:25:10.199Z,15.13
2018-07-25T04:27:43.406Z,9.43
2018-07-25T04:30:13.794Z,12.20
2018-07-25T04:32:43.694Z,10.27
2018-07-25T04:35:15.779Z,10.27
2018-07-25T04:37:45.242Z,19.17
2018-07-25T04:40:14.401Z,10.00
2018-07-25T04:42:43.632Z,11.20
2018-07-25T04:45:12.773Z,11.17
2018-07-25T04:47:41.926Z,9.70
2018-07-25T04:50:11.142Z,10.30
2018-07-25T04:52:40.345Z,21.30
2018-07-25T04:55:09.426Z,15.40
2018-07-25T04:57:38.718Z,10.77
2018-07-25T05:00:08.170Z,13.23
2018-07-25T05:02:37.403Z,12.90
2018-07-25T05:05:06.618Z,11.40
2018-07-25T05:07:35.799Z,12.50
2018-07-25T05:10:05.334Z,11.30
2018-07-25T05:12:35.059Z,10.70
2018-07-25T05:15:04.518Z,14.13
2018-07-25T05:17:33.691Z,10.40
2018-07-25T05:20:03.213Z,11.10
2018-07-25T05:22:32.410Z,12.43
2018-07-25T05:25:01.595Z,15.43
2018-07-25T05:27:30.818Z,11.67
2018-07-25T05:30:00.180Z,15.50
2018-07-25T05:32:29.395Z,16.33
2018-07-25T05:34:58.774Z,20.53
2018-07-25T05:37:28.367Z,35.53
2018-07-25T05:39:57.578Z,17.67
2018-07-25T05:42:27.027Z,22.10
2018-07-25T05:44:56.275Z,15.23
2018-07-25T05:47:25.438Z,23.67
2018-07-25T05:49:54.638Z,19.93
2018-07-25T05:52:23.871Z,20.20
2018-07-25T05:54:53.035Z,11.70
2018-07-25T05:57:22.492Z,23.00
2018-07-25T05:59:51.647Z,10.33
2018-07-25T06:02:20.838Z,22.30
2018-07-25T06:04:50.098Z,20.03
2018-07-25T06:07:19.262Z,21.47
2018-07-25T06:09:48.426Z,14.27
2018-07-25T06:12:17.655Z,11.73
2018-07-25T06:14:46.503Z,11.73
2018-07-25T06:17:15.569Z,16.10
2018-07-25T06:19:44.743Z,10.43
2018-07-25T06:22:13.907Z,11.93
2018-07-25T06:24:43.395Z,17.23
2018-07-25T06:27:13.079Z,9.97
2018-07-25T06:29:42.431Z,9.60
2018-07-25T06:32:11.616Z,14.00
2018-07-25T06:34:40.963Z,20.67
2018-07-25T06:37:10.088Z,23.27
2018-07-25T06:39:39.717Z,11.80
2018-07-25T06:42:08.914Z,19.10
2018-07-25T06:44:38.119Z,16.90
2018-07-25T06:47:07.338Z,14.63
2018-07-25T06:49:37.095Z,11.20
2018-07-25T06:52:06.418Z,17.53
2018-07-25T06:54:35.601Z,19.80
2018-07-25T06:57:04.954Z,25.37
2018-07-25T06:59:34.354Z,24.10
2018-07-25T07:02:03.242Z,26.23
2018-07-25T07:04:32.379Z,20.07
2018-07-25T07:07:01.649Z,20.73
2018-07-25T07:09:30.763Z,25.60
2018-07-25T07:12:00.460Z,20.07
2018-07-25T07:14:29.625Z,21.33
2018-07-25T07:16:58.801Z,14.03
2018-07-25T07:19:27.999Z,18.17
2018-07-25T07:21:57.207Z,8.93
2018-07-25T07:24:26.441Z,11.40
2018-07-25T07:26:55.766Z,9.43
2018-07-25T07:29:25.003Z,24.83
2018-07-25T07:31:54.287Z,15.40
2018-07-25T07:34:23.563Z,15.43
2018-07-25T07:36:52.778Z,12.13
2018-07-25T07:39:21.995Z,11.83
2018-07-25T07:41:51.646Z,11.70
2018-07-25T07:44:20.935Z,12.43
2018-07-25T07:46:50.361Z,8.70
2018-07-25T07:49:19.391Z,12.50
2018-07-25T07:51:48.483Z,11.90
2018-07-25T07:54:17.702Z,8.57
2018-07-25T07:56:47.375Z,10.60
2018-07-25T07:59:16.723Z,8.23
2018-07-25T08:01:45.847Z,14.80
2018-07-25T08:04:15.099Z,10.63
2018-07-25T08:06:44.283Z,10.50
2018-07-25T08:09:13.766Z,8.07
2018-07-25T08:11:42.967Z,10.30
2018-07-25T08:14:12.130Z,13.20
2018-07-25T08:16:41.508Z,19.00
2018-07-25T08:19:11.599Z,10.37
2018-07-25T08:21:40.841Z,9.70
2018-07-25T08:24:10.025Z,12.20
2018-07-25T08:26:39.199Z,7.97
2018-07-25T08:29:08.367Z,12.33
2018-07-25T08:31:37.657Z,6.37
2018-07-25T08:34:06.967Z,5.70
2018-07-25T08:36:36.136Z,8.63
2018-07-25T08:39:08.387Z,5.83
2018-07-25T08:41:37.993Z,6.90
2018-07-25T08:44:07.932Z,11.90
2018-07-25T08:46:37.110Z,6.53
2018-07-25T08:49:06.339Z,10.00
2018-07-25T08:51:35.518Z,8.63
2018-07-25T08:54:04.706Z,5.20
2018-07-25T08:56:33.870Z,19.77
2018-07-25T08:59:03.072Z,7.00
2018-07-25T09:01:32.359Z,8.70
2018-07-25T09:04:01.503Z,8.20
2018-07-25T09:06:30.712Z,5.30
2018-07-25T09:09:00.061Z,11.17
2018-07-25T09:11:33.427Z,11.70
2018-07-25T09:14:02.350Z,4.47
2018-07-25T09:16:31.722Z,6.37
2018-07-25T09:19:00.898Z,4.53
2018-07-25T09:21:30.115Z,4.20
2018-07-25T09:23:59.307Z,5.20
2018-07-25T09:26:29.999Z,16.27
2018-07-25T09:28:59.247Z,5.67
2018-07-25T09:31:28.510Z,4.77
2018-07-25T09:33:57.778Z,4.50
2018-07-25T09:36:26.618Z,8.10
2018-07-25T09:38:55.650Z,19.53
2018-07-25T09:41:24.885Z,10.03
2018-07-25T09:43:54.884Z,6.93
2018-07-25T09:46:24.651Z,3.83
2018-07-25T09:48:53.775Z,8.50
2018-07-25T09:51:23.219Z,12.87
2018-07-25T09:53:52.520Z,7.83
2018-07-25T09:56:22.142Z,3.80
2018-07-25T09:58:51.416Z,11.63
2018-07-25T10:01:20.613Z,8.90
2018-07-25T10:03:49.778Z,8.70
2018-07-25T10:06:19.091Z,6.60
2018-07-25T10:08:48.268Z,6.23
2018-07-25T10:11:17.887Z,8.30
2018-07-25T10:13:47.192Z,6.23
2018-07-25T10:16:16.414Z,9.10
2018-07-25T10:18:45.628Z,8.33
2018-07-25T10:21:14.787Z,4.33
2018-07-25T10:23:44.132Z,6.60
2018-07-25T10:26:13.431Z,7.07
2018-07-25T10:28:42.711Z,4.00
2018-07-25T10:31:11.978Z,11.30
2018-07-25T10:33:41.199Z,4.67
2018-07-25T10:36:10.446Z,7.30
2018-07-25T10:38:41.407Z,9.03
2018-07-25T10:41:11.755Z,7.00
2018-07-25T10:43:41.947Z,5.60
2018-07-25T10:46:12.635Z,6.27
2018-07-25T10:48:42.378Z,10.23
2018-07-25T10:51:11.796Z,10.90
2018-07-25T10:53:42.292Z,5.47
2018-07-25T10:56:13.499Z,5.73
2018-07-25T10:58:42.862Z,3.87
2018-07-25T11:01:12.075Z,5.90
2018-07-25T11:03:42.030Z,14.10
2018-07-25T11:06:11.543Z,8.77
2018-07-25T11:08:42.289Z,3.57
2018-07-25T11:11:11.817Z,4.10
2018-07-25T11:13:46.737Z,3.60
2018-07-25T11:16:15.938Z,6.63
2018-07-25T11:18:45.098Z,6.00
2018-07-25T11:21:16.474Z,3.40
2018-07-25T11:23:45.627Z,13.73
2018-07-25T11:26:14.994Z,4.50
2018-07-25T11:28:44.369Z,13.07
2018-07-25T11:31:13.627Z,4.67
2018-07-25T11:33:42.791Z,7.70
2018-07-25T11:36:12.070Z,2.93
2018-07-25T11:38:41.240Z,2.77
2018-07-25T11:41:10.632Z,2.93
2018-07-25T11:43:39.836Z,3.40
2018-07-25T11:46:09.002Z,3.67
2018-07-25T11:48:38.208Z,2.73
2018-07-25T11:51:08.043Z,2.53
2018-07-25T11:53:37.242Z,5.20
2018-07-25T11:56:06.500Z,2.47
2018-07-25T11:58:37.251Z,4.73
2018-07-25T12:01:06.679Z,4.00
2018-07-25T12:03:35.994Z,5.03
2018-07-25T12:06:07.605Z,3.83
2018-07-25T12:08:38.098Z,2.30
2018-07-25T12:11:08.255Z,4.47
2018-07-25T12:13:37.927Z,4.37
2018-07-25T12:16:07.334Z,2.33
2018-07-25T12:18:36.630Z,6.03
2018-07-25T12:21:07.440Z,2.40
2018-07-25T12:23:37.297Z,4.20
2018-07-25T12:26:06.598Z,3.07
2018-07-25T12:28:35.829Z,6.03
2018-07-25T12:31:06.015Z,2.10
2018-07-25T12:33:35.166Z,2.20
2018-07-25T12:36:04.911Z,4.10
2018-07-25T12:38:34.266Z,7.40
2018-07-25T12:41:03.858Z,4.03
2018-07-25T12:43:33.610Z,5.20
2018-07-25T12:46:03.314Z,3.63
2018-07-25T12:48:32.552Z,7.93
2018-07-25T12:51:01.778Z,3.10
2018-07-25T12:53:31.320Z,4.37
2018-07-25T12:56:00.878Z,1.90
2018-07-25T12:58:30.187Z,9.93
2018-07-25T13:00:59.519Z,2.87
2018-07-25T13:03:29.018Z,4.10
2018-07-25T13:05:58.271Z,4.43
2018-07-25T13:08:29.882Z,3.17
2018-07-25T13:11:00.611Z,4.73
2018-07-25T13:13:29.858Z,5.13
2018-07-25T13:15:59.415Z,1.93
2018-07-25T13:18:28.574Z,1.60
2018-07-25T13:20:57.786Z,2.10
2018-07-25T13:23:27.143Z,3.60
2018-07-25T13:25:56.898Z,1.30
2018-07-25T13:28:27.290Z,5.40
2018-07-25T13:30:56.416Z,6.00
2018-07-25T13:33:25.943Z,4.23
2018-07-25T13:35:55.202Z,6.50
2018-07-25T13:38:24.468Z,2.97
2018-07-25T13:40:53.706Z,1.60
2018-07-25T13:43:22.950Z,4.08
2018-07-25T13:45:52.289Z,4.05
2018-07-25T13:48:21.458Z,3.42
2018-07-25T13:50:50.749Z,2.17
2018-07-25T13:53:19.934Z,4.15
2018-07-25T13:55:49.338Z,6.28
2018-07-25T13:58:18.547Z,1.70
2018-07-25T14:00:48.419Z,4.47
2018-07-25T14:03:17.575Z,2.20
2018-07-25T14:05:46.799Z,6.00
2018-07-25T14:08:15.997Z,11.47
2018-07-25T14:10:45.203Z,4.50
2018-07-25T14:13:14.503Z,2.93
2018-07-25T14:15:43.678Z,1.87
2018-07-25T14:18:13.048Z,4.37
2018-07-25T14:20:42.496Z,1.80
2018-07-25T14:23:11.756Z,12.50
2018-07-25T14:25:41.894Z,3.13
2018-07-25T14:28:11.315Z,7.23
2018-07-25T14:30:40.878Z,2.90
2018-07-25T14:33:10.198Z,6.20
2018-07-25T14:35:42.155Z,1.60
2018-07-25T14:38:12.147Z,5.03
2018-07-25T14:40:41.425Z,2.30
2018-07-25T14:43:10.737Z,4.00
2018-07-25T14:45:40.573Z,3.97
2018-07-25T14:48:09.886Z,4.50
2018-07-25T14:50:39.071Z,3.93
2018-07-25T14:53:08.220Z,2.10
2018-07-25T14:55:37.504Z,3.90
2018-07-25T14:58:07.616Z,1.97
2018-07-25T15:00:36.762Z,2.03
2018-07-25T15:03:06.391Z,3.50
2018-07-25T15:05:35.719Z,4.13
2018-07-25T15:08:06.127Z,3.27
2018-07-25T15:10:35.347Z,2.13
2018-07-25T15:13:04.563Z,3.23
2018-07-25T15:15:34.258Z,2.60
2018-07-25T15:18:03.484Z,2.97
2018-07-25T15:20:32.847Z,3.33
2018-07-25T15:23:01.996Z,2.40
2018-07-25T15:25:31.275Z,1.83
2018-07-25T15:28:00.525Z,5.23
2018-07-25T15:30:30.352Z,5.40
2018-07-25T15:32:59.672Z,6.57
2018-07-25T15:35:29.210Z,4.10
2018-07-25T15:37:58.402Z,5.63
2018-07-25T15:40:27.578Z,11.87
2018-07-25T15:42:57.301Z,2.60
2018-07-25T15:45:26.510Z,2.07
2018-07-25T15:47:55.706Z,4.47
2018-07-25T15:50:24.909Z,2.40
2018-07-25T15:52:54.143Z,2.93
2018-07-25T15:55:23.294Z,2.50
2018-07-25T15:57:52.826Z,10.73
2018-07-25T16:00:22.437Z,1.83
2018-07-25T16:02:51.945Z,3.17
2018-07-25T16:05:21.346Z,10.07
2018-07-25T16:07:50.847Z,2.57
2018-07-25T16:10:21.269Z,3.23
2018-07-25T16:12:50.485Z,3.87
2018-07-25T16:15:19.803Z,4.60
2018-07-25T16:17:48.952Z,2.93
2018-07-25T16:20:18.155Z,3.20
2018-07-25T16:22:47.350Z,4.27
2018-07-25T16:25:16.712Z,4.43
2018-07-25T16:27:46.554Z,3.30
2018-07-25T16:30:15.872Z,5.30
2018-07-25T16:32:45.192Z,2.83
2018-07-25T16:35:14.510Z,7.43
2018-07-25T16:37:44.008Z,10.70
2018-07-25T16:40:13.255Z,1.93
2018-07-25T16:42:42.438Z,4.70
2018-07-25T16:45:11.631Z,5.07
2018-07-25T16:47:40.827Z,5.80
2018-07-25T16:50:10.260Z,7.57
2018-07-25T16:52:41.504Z,3.20
2018-07-25T16:55:10.704Z,1.80
2018-07-25T16:57:39.979Z,6.00
2018-07-25T17:00:10.152Z,3.80
2018-07-25T17:02:39.630Z,5.17
2018-07-25T17:05:09.135Z,3.70
2018-07-25T17:07:38.744Z,5.70
2018-07-25T17:10:08.079Z,5.20
2018-07-25T17:12:37.678Z,4.63
2018-07-25T17:15:07.564Z,4.70
2018-07-25T17:17:38.074Z,3.20
2018-07-25T17:20:07.718Z,7.13
2018-07-25T17:22:38.782Z,5.07
2018-07-25T17:25:08.186Z,5.27
2018-07-25T17:27:37.984Z,2.20
2018-07-25T17:30:07.938Z,5.47
2018-07-25T17:32:37.786Z,2.70
2018-07-25T17:35:08.095Z,2.93
2018-07-25T17:37:38.588Z,1.70
2018-07-25T17:40:08.106Z,3.83
2018-07-25T17:42:37.511Z,3.30
2018-07-25T17:45:09.074Z,2.30
2018-07-25T17:47:38.914Z,3.17
2018-07-25T17:50:09.107Z,2.00
2018-07-25T17:52:38.833Z,2.87
2018-07-25T17:55:08.278Z,3.50
2018-07-25T17:57:37.643Z,5.47
2018-07-25T18:00:09.359Z,4.77
2018-07-25T18:02:38.947Z,2.30
2018-07-25T18:05:09.359Z,6.67
2018-07-25T18:07:38.991Z,3.90
2018-07-25T18:10:08.150Z,4.73
2018-07-25T18:12:37.360Z,4.37
2018-07-25T18:15:08.075Z,4.03
2018-07-25T18:17:37.649Z,3.30
2018-07-25T18:20:07.382Z,4.10
2018-07-25T18:22:37.726Z,6.40
2018-07-25T18:25:07.040Z,2.50
2018-07-25T18:27:36.311Z,23.03
2018-07-25T18:30:06.351Z,8.63
2018-07-25T18:32:35.547Z,12.03
2018-07-25T18:35:04.881Z,3.90
2018-07-25T18:37:34.386Z,5.70
2018-07-25T18:40:04.700Z,2.77
2018-07-25T18:42:34.563Z,3.37
2018-07-25T18:45:03.888Z,6.43
2018-07-25T18:47:34.088Z,5.27
2018-07-25T18:50:03.537Z,5.63
2018-07-25T18:52:32.838Z,7.83
2018-07-25T18:55:02.279Z,3.23
2018-07-25T18:57:31.455Z,5.83
2018-07-25T19:00:00.918Z,7.43
2018-07-25T19:02:30.422Z,9.93
2018-07-25T19:04:59.570Z,8.83
2018-07-25T19:07:28.933Z,8.90
2018-07-25T19:09:58.055Z,8.43
2018-07-25T19:12:27.215Z,9.30
2018-07-25T19:15:02.126Z,5.97
2018-07-25T19:17:31.490Z,2.77
2018-07-25T19:20:00.859Z,6.27
2018-07-25T19:22:30.148Z,6.10
2018-07-25T19:24:59.327Z,3.93
2018-07-25T19:27:28.762Z,7.70
2018-07-25T19:29:58.167Z,9.33
2018-07-25T19:32:28.795Z,3.03
2018-07-25T19:34:58.078Z,5.23
2018-07-25T19:37:27.541Z,16.53
2018-07-25T19:39:56.742Z,7.20
2018-07-25T19:42:25.922Z,7.50
2018-07-25T19:44:55.085Z,4.73
2018-07-25T19:47:24.295Z,4.00
2018-07-25T19:49:53.471Z,5.40
2018-07-25T19:52:22.715Z,3.93
2018-07-25T19:54:51.887Z,2.97
2018-07-25T19:57:21.130Z,6.47
2018-07-25T19:59:50.801Z,7.93
2018-07-25T20:02:20.085Z,6.53
2018-07-25T20:04:49.267Z,10.33
2018-07-25T20:07:18.771Z,8.37
2018-07-25T20:09:48.043Z,11.80
2018-07-25T20:12:17.220Z,5.77
2018-07-25T20:14:51.930Z,7.87
2018-07-25T20:17:21.145Z,6.93
2018-07-25T20:19:50.362Z,4.83
2018-07-25T20:22:19.509Z,6.40
2018-07-25T20:24:48.670Z,5.13
2018-07-25T20:27:17.851Z,5.77
2018-07-25T20:29:47.103Z,3.17
2018-07-25T20:32:17.562Z,7.40
2018-07-25T20:34:46.787Z,7.40
2018-07-25T20:37:16.190Z,5.70
2018-07-25T20:39:45.638Z,10.27
2018-07-25T20:42:14.825Z,8.80
2018-07-25T20:44:44.301Z,9.07
2018-07-25T20:47:13.435Z,5.20
2018-07-25T20:49:42.142Z,5.67
2018-07-25T20:52:11.226Z,4.10
2018-07-25T20:54:40.428Z,6.23
2018-07-25T20:57:09.582Z,9.10
2018-07-25T20:59:39.202Z,8.43
2018-07-25T21:02:08.403Z,5.80
2018-07-25T21:04:37.582Z,6.23
2018-07-25T21:07:07.228Z,5.80
2018-07-25T21:09:36.427Z,7.83
2018-07-25T21:12:05.600Z,6.47
2018-07-25T21:14:34.806Z,6.37
2018-07-25T21:17:03.983Z,7.83
2018-07-25T21:19:33.155Z,7.63
2018-07-25T21:22:02.432Z,5.90
2018-07-25T21:24:31.582Z,6.60
2018-07-25T21:27:00.786Z,9.80
2018-07-25T21:29:29.967Z,10.00
2018-07-25T21:31:59.143Z,7.10
2018-07-25T21:34:27.994Z,6.80
2018-07-25T21:36:57.039Z,7.70
2018-07-25T21:39:26.239Z,5.83
2018-07-25T21:41:55.414Z,6.70
2018-07-25T21:44:25.092Z,5.60
2018-07-25T21:46:54.330Z,8.10
2018-07-25T21:49:23.211Z,5.77
2018-07-25T21:51:52.276Z,5.73
2018-07-25T21:54:21.445Z,10.23
2018-07-25T21:56:50.590Z,5.07
2018-07-25T21:59:20.283Z,4.03
2018-07-25T22:01:49.439Z,13.17
2018-07-25T22:04:18.582Z,4.70
2018-07-25T22:06:48.167Z,5.47
2018-07-25T22:09:17.835Z,7.07
2018-07-25T22:11:47.123Z,9.77
2018-07-25T22:14:16.327Z,4.03
2018-07-25T22:16:45.489Z,8.30
2018-07-25T22:19:14.659Z,5.97
2018-07-25T22:21:43.849Z,5.03
2018-07-25T22:24:12.994Z,3.97
2018-07-25T22:26:42.139Z,7.67
2018-07-25T22:29:11.371Z,3.70
2018-07-25T22:31:40.535Z,6.60
2018-07-25T22:34:09.750Z,5.20
2018-07-25T22:36:38.928Z,5.63
2018-07-25T22:39:09.544Z,5.67
2018-07-25T22:41:38.719Z,6.40
2018-07-25T22:44:07.928Z,4.50
2018-07-25T22:46:37.058Z,9.13
2018-07-25T22:49:06.213Z,6.63
2018-07-25T22:51:35.579Z,7.90
2018-07-25T22:54:04.730Z,7.37
2018-07-25T22:56:33.911Z,11.73
2018-07-25T22:59:03.150Z,6.27
2018-07-25T23:01:32.302Z,5.93
2018-07-25T23:04:01.459Z,5.83
2018-07-25T23:06:30.639Z,4.83
2018-07-25T23:08:59.798Z,5.77
2018-07-25T23:11:29.422Z,6.37
2018-07-25T23:13:58.676Z,9.37
2018-07-25T23:16:27.868Z,11.70
2018-07-25T23:18:57.018Z,4.93
2018-07-25T23:21:25.909Z,6.63
2018-07-25T23:23:54.942Z,8.33
2018-07-25T23:26:24.091Z,14.00
2018-07-25T23:28:53.328Z,6.00
2018-07-25T23:31:22.613Z,16.37
2018-07-25T23:33:51.824Z,7.90
2018-07-25T23:36:21.129Z,6.40
2018-07-25T23:38:50.365Z,5.90
2018-07-25T23:41:19.911Z,6.53
2018-07-25T23:43:49.141Z,9.53
2018-07-25T23:46:18.388Z,4.97
2018-07-25T23:48:47.628Z,6.27
2018-07-25T23:51:16.880Z,6.20
2018-07-25T23:53:46.085Z,7.73
2018-07-25T23:56:15.300Z,7.20
2018-07-25T23:58:44.289Z,7.43
